Put In Bay, Ohio
Current Conditions -  °F | °C
As of 10:53 PM on Sunday 21 Dec 2014 (Local Time) from KPCW Reporting Station
Clear Clear  
Wind Chill: 20°   Ceiling: Unl
Heat Index: 27°   Visibility: 9mi
Dew Point: 22°   Wind: 7mph
Humidity: 81%   Direction: 130°SE
Pressure: 30.21"   Gusts: NA
Location:  41.65°N, 82.82°W
Report Text: KPCW 220353Z AUTO 13006KT 9SM CLR M03/M06 A3021 RMK AO2 T10271055 $
Loading
Personal Weather Stations






























Interactive Weather Map New forecast layout! Learn more

10-Day Weather Forecast

Advertisements
Track Severe Weather on mobile